createdAt,value
2022-08-12T00:00:35.123Z,101150.31
2022-08-12T00:03:20.782Z,101156.28
2022-08-12T00:06:07.384Z,101154.19
2022-08-12T00:08:53.409Z,101150.84
2022-08-12T00:11:39.213Z,101151.75
2022-08-12T00:14:24.142Z,101153.34
2022-08-12T00:17:08.917Z,101145.75
2022-08-12T00:19:54.332Z,101146.50
2022-08-12T00:22:40.001Z,101154.75
2022-08-12T00:26:21.629Z,101155.41
2022-08-12T00:28:30.319Z,101159.44
2022-08-12T00:31:15.209Z,101156.25
2022-08-12T00:34:00.005Z,101155.25
2022-08-12T00:36:46.287Z,101144.97
2022-08-12T00:39:35.416Z,101155.25
2022-08-12T00:42:11.302Z,101151.88
2022-08-12T00:44:38.827Z,101152.13
2022-08-12T00:47:06.405Z,101161.44
2022-08-12T00:49:37.824Z,101162.41
2022-08-12T00:52:11.269Z,101160.28
2022-08-12T00:54:47.833Z,101158.75
2022-08-12T00:57:16.062Z,101159.41
2022-08-12T00:59:44.044Z,101164.34
2022-08-12T01:02:12.614Z,101160.69
2022-08-12T01:04:58.868Z,101153.84
2022-08-12T01:07:45.344Z,101158.66
2022-08-12T01:10:32.579Z,101159.22
2022-08-12T01:13:18.617Z,101164.59
2022-08-12T01:15:47.845Z,101160.94
2022-08-12T01:18:14.467Z,101164.03
2022-08-12T01:20:53.117Z,101165.44
2022-08-12T01:23:22.550Z,101165.84
2022-08-12T01:25:56.433Z,101165.53
2022-08-12T01:28:24.102Z,101158.16
2022-08-12T01:30:50.760Z,101161.75
2022-08-12T01:33:18.479Z,101165.38
2022-08-12T01:35:57.988Z,101163.53
2022-08-12T01:38:35.643Z,101175.00
2022-08-12T01:41:02.347Z,101165.38
2022-08-12T01:43:30.005Z,101160.09
2022-08-12T01:46:22.615Z,101161.06
2022-08-12T01:49:07.973Z,101167.38
2022-08-12T01:52:21.692Z,101172.38
2022-08-12T01:54:29.813Z,101160.22
2022-08-12T01:57:02.312Z,101169.28
2022-08-12T01:59:49.762Z,101160.63
2022-08-12T02:02:19.036Z,101166.16
2022-08-12T02:05:20.061Z,101162.31
2022-08-12T02:08:24.851Z,101163.75
2022-08-12T02:11:16.893Z,101155.44
2022-08-12T02:13:48.790Z,101161.84
2022-08-12T02:16:36.261Z,101165.66
2022-08-12T02:19:22.647Z,101162.41
2022-08-12T02:21:52.297Z,101172.00
2022-08-12T02:24:20.079Z,101172.00
2022-08-12T02:26:50.012Z,101163.03
2022-08-12T02:29:18.516Z,101160.06
2022-08-12T02:31:45.728Z,101163.66
2022-08-12T02:34:13.036Z,101163.56
2022-08-12T02:36:40.215Z,101157.56
2022-08-12T02:39:13.115Z,101165.22
2022-08-12T02:41:42.507Z,101161.03
2022-08-12T02:44:09.625Z,101161.94
2022-08-12T02:46:37.348Z,101154.13
2022-08-12T02:49:15.848Z,101161.78
2022-08-12T02:51:42.896Z,101157.03
2022-08-12T02:54:09.221Z,101167.16
2022-08-12T02:56:50.294Z,101164.66
2022-08-12T02:59:19.654Z,101160.56
2022-08-12T03:01:47.886Z,101161.78
2022-08-12T03:04:21.200Z,101158.50
2022-08-12T03:07:01.190Z,101156.25
2022-08-12T03:09:31.983Z,101160.28
2022-08-12T03:12:09.554Z,101154.38
2022-08-12T03:14:46.653Z,101155.72
2022-08-12T03:17:22.055Z,101157.22
2022-08-12T03:20:10.409Z,101147.69
2022-08-12T03:22:38.752Z,101155.91
2022-08-12T03:25:05.984Z,101147.50
2022-08-12T03:27:32.468Z,101151.88
2022-08-12T03:29:59.214Z,101149.97
2022-08-12T03:32:35.880Z,101150.56
2022-08-12T03:35:07.249Z,101155.91
2022-08-12T03:37:34.657Z,101146.47
2022-08-12T03:40:01.066Z,101142.25
2022-08-12T03:42:33.256Z,101154.38
2022-08-12T03:45:25.755Z,101149.69
2022-08-12T03:48:19.181Z,101145.31
2022-08-12T03:51:05.529Z,101153.34
2022-08-12T03:53:50.364Z,101162.19
2022-08-12T03:56:35.748Z,101158.13
2022-08-12T03:59:23.230Z,101160.31
2022-08-12T04:01:55.208Z,101149.56
2022-08-12T04:04:23.419Z,101157.00
2022-08-12T04:06:50.574Z,101145.72
2022-08-12T04:09:18.565Z,101157.31
2022-08-12T04:12:03.893Z,101159.03
2022-08-12T04:14:36.043Z,101149.31
2022-08-12T04:17:03.012Z,101159.28
2022-08-12T04:19:29.591Z,101163.38
2022-08-12T04:22:01.183Z,101161.56
2022-08-12T04:24:29.002Z,101167.03
2022-08-12T04:26:55.605Z,101158.94
2022-08-12T04:29:22.461Z,101156.81
2022-08-12T04:32:09.545Z,101158.94
2022-08-12T04:34:37.820Z,101157.22
2022-08-12T04:37:04.286Z,101153.56
2022-08-12T04:39:30.801Z,101154.41
2022-08-12T04:41:58.648Z,101149.06
2022-08-12T04:44:26.395Z,101163.16
2022-08-12T04:46:53.453Z,101165.22
2022-08-12T04:49:20.879Z,101155.44
2022-08-12T04:51:54.672Z,101162.72
2022-08-12T04:54:26.155Z,101162.31
2022-08-12T04:57:03.056Z,101153.72
2022-08-12T04:59:32.612Z,101164.38
2022-08-12T05:02:16.941Z,101163.00
2022-08-12T05:04:49.989Z,101160.31
2022-08-12T05:07:16.378Z,101158.72
2022-08-12T05:10:00.503Z,101162.16
2022-08-12T05:12:30.449Z,101163.50
2022-08-12T05:14:56.802Z,101162.28
2022-08-12T05:17:27.254Z,101162.28
2022-08-12T05:19:54.892Z,101159.34
2022-08-12T05:22:23.936Z,101156.25
2022-08-12T05:24:50.271Z,101158.09
2022-08-12T05:27:17.643Z,101162.84
2022-08-12T05:30:07.293Z,101162.84
2022-08-12T05:32:36.206Z,101163.91
2022-08-12T05:35:06.328Z,101170.28
2022-08-12T05:37:33.705Z,101171.50
2022-08-12T05:40:00.748Z,101171.84
2022-08-12T05:42:31.080Z,101174.47
2022-08-12T05:45:01.409Z,101170.75
2022-08-12T05:47:36.656Z,101179.28
2022-08-12T05:50:15.325Z,101182.44
2022-08-12T05:52:41.878Z,101182.38
2022-08-12T05:55:08.468Z,101180.56
2022-08-12T05:57:37.016Z,101183.69
2022-08-12T06:00:04.389Z,101180.66
2022-08-12T06:02:31.017Z,101173.25
2022-08-12T06:05:00.218Z,101179.06
2022-08-12T06:07:59.408Z,101167.91
2022-08-12T06:10:13.628Z,101175.91
2022-08-12T06:12:40.189Z,101177.06
2022-08-12T06:15:07.026Z,101188.28
2022-08-12T06:17:33.580Z,101183.16
2022-08-12T06:20:28.090Z,101185.81
2022-08-12T06:22:47.835Z,101185.00
2022-08-12T06:25:19.205Z,101188.97
2022-08-12T06:28:07.206Z,101180.91
2022-08-12T06:30:38.351Z,101184.34
2022-08-12T06:33:22.213Z,101185.25
2022-08-12T06:35:51.220Z,101184.72
2022-08-12T06:38:22.743Z,101185.06
2022-08-12T06:41:08.681Z,101179.31
2022-08-12T06:44:06.015Z,101184.38
2022-08-12T06:46:22.708Z,101175.50
2022-08-12T06:48:56.872Z,101178.38
2022-08-12T06:51:23.569Z,101180.63
2022-08-12T06:53:49.909Z,101171.22
2022-08-12T06:56:16.687Z,101167.03
2022-08-12T06:58:44.480Z,101170.13
2022-08-12T07:01:10.970Z,101171.41
2022-08-12T07:03:38.354Z,101172.94
2022-08-12T07:06:06.116Z,101170.56
2022-08-12T07:08:33.390Z,101170.00
2022-08-12T07:11:02.832Z,101178.44
2022-08-12T07:13:32.468Z,101169.00
2022-08-12T07:15:59.554Z,101177.34
2022-08-12T07:18:43.970Z,101171.53
2022-08-12T07:21:11.194Z,101172.81
2022-08-12T07:23:38.520Z,101184.78
2022-08-12T07:26:06.627Z,101179.19
2022-08-12T07:28:35.401Z,101186.72
2022-08-12T07:31:07.839Z,101188.91
2022-08-12T07:33:35.071Z,101187.63
2022-08-12T07:36:02.358Z,101189.59
2022-08-12T07:38:33.501Z,101190.84
2022-08-12T07:41:03.322Z,101187.19
2022-08-12T07:43:30.901Z,101187.50
2022-08-12T07:45:58.175Z,101190.91
2022-08-12T07:48:24.838Z,101182.19
2022-08-12T07:50:51.317Z,101184.41
2022-08-12T07:53:17.930Z,101188.78
2022-08-12T07:55:44.472Z,101183.69
2022-08-12T07:58:11.124Z,101189.34
2022-08-12T08:00:40.167Z,101199.59
2022-08-12T08:03:08.627Z,101188.41
2022-08-12T08:05:39.308Z,101196.72
2022-08-12T08:08:12.533Z,101201.34
2022-08-12T08:10:38.872Z,101204.31
2022-08-12T08:13:06.538Z,101201.69
2022-08-12T08:16:01.241Z,101199.25
2022-08-12T08:18:26.804Z,101204.75
2022-08-12T08:20:54.225Z,101212.19
2022-08-12T08:23:20.655Z,101204.38
2022-08-12T08:25:48.304Z,101205.09
2022-08-12T08:28:17.100Z,101204.13
2022-08-12T08:30:45.315Z,101209.25
2022-08-12T08:33:22.856Z,101199.97
2022-08-12T08:35:51.214Z,101200.94
2022-08-12T08:38:32.343Z,101197.94
2022-08-12T08:42:16.166Z,101199.59
2022-08-12T08:44:06.815Z,101197.84
2022-08-12T08:46:37.353Z,101204.31
2022-08-12T08:49:05.267Z,101202.69
2022-08-12T08:51:31.695Z,101189.88
2022-08-12T08:53:58.016Z,101192.75
2022-08-12T08:56:24.587Z,101194.94
2022-08-12T08:58:51.093Z,101190.25
2022-08-12T09:01:22.444Z,101194.56
2022-08-12T09:05:08.902Z,101192.03
2022-08-12T09:06:38.147Z,101186.56
2022-08-12T09:09:13.359Z,101198.00
2022-08-12T09:12:11.078Z,101201.59
2022-08-12T09:14:43.562Z,101191.56
2022-08-12T09:17:14.036Z,101191.31
2022-08-12T09:19:52.278Z,101190.63
2022-08-12T09:25:10.950Z,101182.81
2022-08-12T09:28:30.776Z,101180.75
2022-08-12T09:30:41.644Z,101183.63
2022-08-12T09:33:18.928Z,101179.09
2022-08-12T09:35:46.807Z,101179.66
2022-08-12T09:38:31.912Z,101183.78
2022-08-12T09:42:07.225Z,101180.78
2022-08-12T09:44:05.406Z,101180.81
2022-08-12T09:46:32.121Z,101173.53
2022-08-12T09:49:01.241Z,101173.66
2022-08-12T09:51:38.216Z,101170.25
2022-08-12T09:54:33.423Z,101169.09
2022-08-12T09:57:03.729Z,101170.50
2022-08-12T10:00:12.798Z,101171.34
2022-08-12T10:02:42.516Z,101164.84
2022-08-12T10:05:13.403Z,101162.94
2022-08-12T10:07:41.751Z,101151.09
2022-08-12T10:10:24.005Z,101153.75
2022-08-12T10:13:11.232Z,101145.72
2022-08-12T10:16:02.086Z,101150.94
2022-08-12T10:18:26.289Z,101141.44
2022-08-12T10:20:52.794Z,101150.09
2022-08-12T10:23:19.905Z,101143.47
2022-08-12T10:26:37.645Z,101145.47
2022-08-12T10:30:02.902Z,101135.44
2022-08-12T10:32:21.274Z,101125.91
2022-08-12T10:34:53.708Z,101123.78
2022-08-12T10:38:38.492Z,101121.56
2022-08-12T10:40:15.741Z,101108.75
2022-08-12T10:43:05.317Z,101104.94
2022-08-12T10:45:31.788Z,101101.09
2022-08-12T10:48:20.122Z,101102.47
2022-08-12T10:51:02.204Z,101099.53
2022-08-12T10:53:44.381Z,101094.47
2022-08-12T10:56:16.370Z,101093.19
2022-08-12T10:58:46.006Z,101097.75
2022-08-12T11:01:48.832Z,101092.53
2022-08-12T11:04:24.522Z,101082.09
2022-08-12T11:07:06.266Z,101079.38
2022-08-12T11:09:54.339Z,101067.03
2022-08-12T11:12:57.008Z,101062.47
2022-08-12T11:15:21.019Z,101063.34
2022-08-12T11:17:53.203Z,101073.41
2022-08-12T11:20:22.125Z,101068.28
2022-08-12T11:22:58.766Z,101054.31
2022-08-12T11:25:55.927Z,101065.13
2022-08-12T11:28:13.516Z,101059.88
2022-08-12T11:30:40.151Z,101060.03
2022-08-12T11:33:11.654Z,101049.78
2022-08-12T11:35:43.454Z,101054.59
2022-08-12T11:38:10.764Z,101053.50
2022-08-12T11:40:37.312Z,101047.53
2022-08-12T11:43:18.873Z,101044.81
2022-08-12T11:45:47.131Z,101036.97
2022-08-12T11:48:15.386Z,101045.75
2022-08-12T11:50:45.232Z,101040.94
2022-08-12T11:53:58.341Z,101036.19
2022-08-12T11:55:57.964Z,101033.84
2022-08-12T11:59:44.427Z,101039.44
2022-08-12T12:02:01.114Z,101039.03
2022-08-12T12:03:57.188Z,101026.28
2022-08-12T12:06:24.830Z,101035.13
2022-08-12T12:08:53.828Z,101030.63
2022-08-12T12:11:20.919Z,101027.09
2022-08-12T12:14:07.473Z,101021.44
2022-08-12T12:16:38.096Z,101022.78
2022-08-12T12:19:05.933Z,101023.09
2022-08-12T12:21:48.447Z,101010.94
2022-08-12T12:24:20.940Z,101010.00
2022-08-12T12:27:00.618Z,101013.19
2022-08-12T12:30:17.854Z,100999.03
2022-08-12T12:32:14.659Z,101008.00
2022-08-12T12:35:14.130Z,101004.16
2022-08-12T12:38:03.966Z,100989.91
2022-08-12T12:40:13.999Z,100988.81
2022-08-12T12:42:52.181Z,100987.50
2022-08-12T12:45:23.098Z,100986.16
2022-08-12T12:48:02.854Z,100980.03
2022-08-12T12:50:35.787Z,100978.53
2022-08-12T12:54:06.088Z,100971.94
2022-08-12T12:55:57.090Z,100968.91
2022-08-12T12:58:25.385Z,100969.38
2022-08-12T13:00:53.863Z,100971.56
2022-08-12T13:03:22.517Z,100963.00
2022-08-12T13:05:53.642Z,100961.97
2022-08-12T13:08:28.313Z,100957.38
2022-08-12T13:11:03.988Z,100955.56
2022-08-12T13:14:07.758Z,100950.16
2022-08-12T13:16:20.782Z,100945.88
2022-08-12T13:18:48.376Z,100947.22
2022-08-12T13:21:33.072Z,100948.44
2022-08-12T13:24:10.041Z,100937.78
2022-08-12T13:26:38.678Z,100944.38
2022-08-12T13:29:05.134Z,100952.34
2022-08-12T13:31:31.466Z,100946.13
2022-08-12T13:34:33.360Z,100945.44
2022-08-12T13:36:50.680Z,100949.53
2022-08-12T13:39:17.829Z,100937.84
2022-08-12T13:41:44.413Z,100933.25
2022-08-12T13:44:11.771Z,100934.50
2022-08-12T13:46:40.864Z,100931.28
2022-08-12T13:49:11.570Z,100929.75
2022-08-12T13:51:48.867Z,100915.59
2022-08-12T13:54:19.490Z,100928.28
2022-08-12T13:56:49.893Z,100917.97
2022-08-12T13:59:24.426Z,100924.91
2022-08-12T14:01:52.056Z,100910.41
2022-08-12T14:04:19.068Z,100912.72
2022-08-12T14:06:50.357Z,100907.44
2022-08-12T14:09:17.927Z,100897.59
2022-08-12T14:11:59.042Z,100902.03
2022-08-12T14:14:26.800Z,100898.81
2022-08-12T14:16:53.521Z,100895.78
2022-08-12T14:19:24.351Z,100898.47
2022-08-12T14:22:01.453Z,100899.72
2022-08-12T14:24:40.304Z,100896.91
2022-08-12T14:27:08.706Z,100895.69
2022-08-12T14:29:55.712Z,100890.78
2022-08-12T14:32:23.719Z,100892.59
2022-08-12T14:34:51.495Z,100890.53
2022-08-12T14:37:57.203Z,100899.34
2022-08-12T14:40:05.449Z,100893.97
2022-08-12T14:42:31.985Z,100894.63
2022-08-12T14:45:01.568Z,100891.72
2022-08-12T14:47:29.398Z,100884.72
2022-08-12T14:50:58.135Z,100890.72
2022-08-12T14:58:25.071Z,100873.94
2022-08-12T15:01:11.426Z,100874.19
2022-08-12T15:03:52.261Z,100875.16
2022-08-12T15:06:43.656Z,100873.94
2022-08-12T15:09:12.180Z,100867.84
2022-08-12T15:11:54.776Z,100861.31
2022-08-12T15:14:22.807Z,100857.81
2022-08-12T15:16:50.045Z,100861.59
2022-08-12T15:20:11.021Z,100859.75
2022-08-12T15:22:37.787Z,100856.19
2022-08-12T15:24:49.377Z,100851.09
2022-08-12T15:27:15.956Z,100848.56
2022-08-12T15:29:52.402Z,100853.75
2022-08-12T15:32:20.257Z,100854.25
2022-08-12T15:35:00.744Z,100855.03
2022-08-12T15:38:10.441Z,100850.47
2022-08-12T15:40:13.955Z,100854.88
2022-08-12T15:42:40.639Z,100849.41
2022-08-12T15:45:08.595Z,100848.22
2022-08-12T15:47:49.755Z,100841.91
2022-08-12T15:50:23.152Z,100844.00
2022-08-12T15:52:54.004Z,100841.13
2022-08-12T15:55:21.600Z,100839.34
2022-08-12T15:57:54.396Z,100832.94
2022-08-12T16:00:33.164Z,100836.94
2022-08-12T16:03:01.783Z,100828.94
2022-08-12T16:06:19.506Z,100832.72
2022-08-12T16:08:27.049Z,100831.13
2022-08-12T16:10:54.146Z,100826.13
2022-08-12T16:13:32.706Z,100834.19
2022-08-12T16:16:03.873Z,100830.00
2022-08-12T16:18:33.256Z,100824.94
2022-08-12T16:21:00.335Z,100825.59
2022-08-12T16:23:52.252Z,100826.38
2022-08-12T16:26:15.145Z,100815.69
2022-08-12T16:28:47.425Z,100813.75
2022-08-12T16:31:22.821Z,100810.13
2022-08-12T16:33:56.861Z,100804.81
2022-08-12T16:36:27.326Z,100813.78
2022-08-12T16:38:53.768Z,100807.25
2022-08-12T16:41:21.540Z,100811.69
2022-08-12T16:43:47.893Z,100804.94
2022-08-12T16:46:31.911Z,100810.41
2022-08-12T16:49:08.651Z,100805.25
2022-08-12T16:51:41.973Z,100798.22
2022-08-12T16:54:16.074Z,100795.88
2022-08-12T16:56:54.751Z,100794.97
2022-08-12T16:59:21.593Z,100797.31
2022-08-12T17:01:49.586Z,100800.34
2022-08-12T17:04:17.608Z,100794.28
2022-08-12T17:06:46.959Z,100796.38
2022-08-12T17:09:17.376Z,100796.16
2022-08-12T17:11:44.465Z,100798.72
2022-08-12T17:14:10.785Z,100796.66
2022-08-12T17:16:38.074Z,100804.28
2022-08-12T17:19:09.566Z,100797.78
2022-08-12T17:21:40.803Z,100795.06
2022-08-12T17:24:21.576Z,100795.19
2022-08-12T17:26:49.967Z,100797.94
2022-08-12T17:29:24.329Z,100802.72
2022-08-12T17:32:08.495Z,100790.31
2022-08-12T17:34:54.202Z,100790.03
2022-08-12T17:37:20.570Z,100795.47
2022-08-12T17:40:14.936Z,100796.06
2022-08-12T17:42:35.227Z,100795.56
2022-08-12T17:45:17.921Z,100793.50
2022-08-12T17:48:04.991Z,100798.38
2022-08-12T17:50:36.794Z,100787.56
2022-08-12T17:53:04.552Z,100793.97
2022-08-12T17:55:43.783Z,100790.97
2022-08-12T17:58:14.820Z,100797.00
2022-08-12T18:00:43.645Z,100797.00
2022-08-12T18:03:11.737Z,100796.41
2022-08-12T18:05:55.274Z,100804.63
2022-08-12T18:08:29.419Z,100811.44
2022-08-12T18:12:05.100Z,100805.00
2022-08-12T18:14:06.955Z,100812.38
2022-08-12T18:16:34.497Z,100811.03
2022-08-12T18:19:02.443Z,100821.28
2022-08-12T18:21:30.310Z,100814.19
2022-08-12T18:24:22.275Z,100821.88
2022-08-12T18:26:56.667Z,100821.50
2022-08-12T18:29:24.022Z,100829.03
2022-08-12T18:31:59.190Z,100830.50
2022-08-12T18:34:27.699Z,100826.78
2022-08-12T18:36:55.642Z,100829.50
2022-08-12T18:39:22.361Z,100833.94
2022-08-12T18:41:49.869Z,100831.06
2022-08-12T18:44:16.193Z,100828.59
2022-08-12T18:46:54.342Z,100838.13
2022-08-12T18:49:28.417Z,100840.84
2022-08-12T18:52:03.921Z,100834.06
2022-08-12T18:54:32.303Z,100831.34
2022-08-12T18:57:00.698Z,100832.88
2022-08-12T19:00:02.533Z,100837.16
2022-08-12T19:02:20.509Z,100839.34
2022-08-12T19:04:49.683Z,100838.53
2022-08-12T19:07:23.516Z,100840.91
2022-08-12T19:09:57.549Z,100848.03
2022-08-12T19:12:57.244Z,100848.19
2022-08-12T19:15:25.635Z,100853.13
2022-08-12T19:18:00.609Z,100847.69
2022-08-12T19:20:29.962Z,100851.41
2022-08-12T19:22:59.869Z,100847.00
2022-08-12T19:26:00.572Z,100861.91
2022-08-12T19:28:30.110Z,100857.50
2022-08-12T19:31:55.290Z,100866.25
2022-08-12T19:34:39.553Z,100858.44
2022-08-12T19:37:09.139Z,100866.06
2022-08-12T19:40:08.931Z,100865.19
2022-08-12T19:42:27.550Z,100873.63
2022-08-12T19:44:55.743Z,100875.31
2022-08-12T19:47:24.913Z,100872.53
2022-08-12T19:49:55.207Z,100874.63
2022-08-12T19:52:27.719Z,100872.53
2022-08-12T19:54:56.028Z,100878.59
2022-08-12T19:57:23.523Z,100873.50
2022-08-12T20:00:04.474Z,100880.28
2022-08-12T20:02:34.817Z,100876.19
2022-08-12T20:06:03.127Z,100878.53
2022-08-12T20:07:57.165Z,100879.50
2022-08-12T20:10:35.590Z,100883.22
2022-08-12T20:13:19.246Z,100878.44
2022-08-12T20:15:59.547Z,100881.41
2022-08-12T20:18:44.268Z,100881.50
2022-08-12T20:21:15.191Z,100887.34
2022-08-12T20:24:00.491Z,100889.94
2022-08-12T20:26:27.639Z,100896.97
2022-08-12T20:28:54.839Z,100897.28
2022-08-12T20:31:21.312Z,100899.91
2022-08-12T20:33:56.492Z,100905.09
2022-08-12T20:36:41.515Z,100904.94
2022-08-12T20:39:51.158Z,100903.59
2022-08-12T20:41:58.966Z,100912.75
2022-08-12T20:44:30.363Z,100902.31
2022-08-12T20:46:58.132Z,100905.16
2022-08-12T20:49:25.018Z,100908.91
2022-08-12T20:51:56.126Z,100904.38
2022-08-12T20:54:22.817Z,100910.19
2022-08-12T20:56:49.310Z,100904.13
2022-08-12T20:59:20.241Z,100911.34
2022-08-12T21:01:49.065Z,100908.97
2022-08-12T21:04:35.494Z,100904.44
2022-08-12T21:07:08.187Z,100901.03
2022-08-12T21:09:44.472Z,100901.91
2022-08-12T21:12:28.070Z,100902.91
2022-08-12T21:15:00.740Z,100905.03
2022-08-12T21:18:08.638Z,100911.56
2022-08-12T21:20:32.445Z,100903.31
2022-08-12T21:22:58.885Z,100903.84
2022-08-12T21:25:35.903Z,100904.16
2022-08-12T21:28:10.510Z,100902.19
2022-08-12T21:31:10.503Z,100898.59
2022-08-12T21:33:30.992Z,100910.72
2022-08-12T21:35:58.083Z,100910.59
2022-08-12T21:38:34.911Z,100911.69
2022-08-12T21:41:07.051Z,100917.78
2022-08-12T21:43:45.096Z,100913.09
2022-08-12T21:46:34.617Z,100918.75
2022-08-12T21:49:04.824Z,100922.81
2022-08-12T21:51:48.950Z,100917.16
2022-08-12T21:54:21.831Z,100923.53
2022-08-12T21:56:49.035Z,100922.34
2022-08-12T21:59:16.828Z,100921.50
2022-08-12T22:01:48.781Z,100921.84
2022-08-12T22:04:34.714Z,100934.69
2022-08-12T22:07:01.132Z,100924.13
2022-08-12T22:09:28.879Z,100926.22
2022-08-12T22:11:59.641Z,100923.22
2022-08-12T22:14:29.822Z,100923.22
2022-08-12T22:16:57.147Z,100920.66
2022-08-12T22:19:23.736Z,100928.34
2022-08-12T22:21:54.579Z,100932.28
2022-08-12T22:24:26.381Z,100929.91
2022-08-12T22:26:56.072Z,100927.53
2022-08-12T22:29:41.949Z,100938.56
2022-08-12T22:32:11.500Z,100935.09
2022-08-12T22:34:38.657Z,100938.28
2022-08-12T22:37:05.711Z,100929.34
2022-08-12T22:39:37.918Z,100933.41
2022-08-12T22:42:30.720Z,100933.56
2022-08-12T22:45:16.411Z,100940.16
2022-08-12T22:47:54.755Z,100936.50
2022-08-12T22:50:27.251Z,100935.03
2022-08-12T22:53:16.452Z,100929.66
2022-08-12T22:56:00.230Z,100933.56
2022-08-12T22:58:32.072Z,100935.75
2022-08-12T23:00:59.000Z,100934.31
2022-08-12T23:03:49.370Z,100927.47
2022-08-12T23:06:19.385Z,100935.59
2022-08-12T23:08:45.963Z,100931.69
2022-08-12T23:11:12.287Z,100930.72
2022-08-12T23:13:54.646Z,100927.53
2022-08-12T23:16:29.337Z,100924.38
2022-08-12T23:19:01.471Z,100925.84
2022-08-12T23:22:03.969Z,100927.88
2022-08-12T23:24:22.487Z,100923.88
2022-08-12T23:27:10.941Z,100919.97
2022-08-12T23:29:43.155Z,100921.59
2022-08-12T23:32:10.900Z,100917.31
2022-08-12T23:34:37.498Z,100914.88
2022-08-12T23:37:04.924Z,100916.81
2022-08-12T23:40:13.298Z,100917.16
2022-08-12T23:42:19.886Z,100918.03
2022-08-12T23:44:48.405Z,100921.44
2022-08-12T23:47:16.189Z,100922.19
2022-08-12T23:49:58.953Z,100918.75
2022-08-12T23:52:33.888Z,100913.63
2022-08-12T23:55:23.142Z,100912.19
2022-08-12T23:58:17.755Z,100924.59
